Time;durP1;ratioP1;P1;durP2;ratioP2;P2;SDS_P1;SDS_P2;PMS_P1;PMS_P2;Temp;Humidity;BMP_temperature;BMP_pressure;BME280_temperature;BME280_humidity;BME280_pressure;Samples;Min_cycle;Max_cycle;Signal;HPM_P1;HPM_P2
2022/07/30 00:00:59;;;;;;;3.33;3.23;;;;;;;25.98;58.76;99377.59;5133543;27;20558;-70
2022/07/30 00:03:28;;;;;;;5.03;3.87;;;;;;;25.97;58.57;99381.19;5133303;27;20190;-70
2022/07/30 00:05:55;;;;;;;3.27;3.07;;;;;;;25.96;58.84;99378.72;5112699;28;20197;-70
2022/07/30 00:08:22;;;;;;;3.70;3.50;;;;;;;25.92;58.75;99378.16;5112831;27;20256;-70
2022/07/30 00:10:49;;;;;;;3.67;3.40;;;;;;;25.89;59.23;99378.44;5112639;28;20199;-70
2022/07/30 00:13:16;;;;;;;3.27;3.17;;;;;;;25.82;59.19;99372.13;5112584;28;20220;-70
2022/07/30 00:15:43;;;;;;;3.90;3.70;;;;;;;25.88;59.20;99383.88;5112844;28;20199;-70
2022/07/30 00:18:10;;;;;;;3.90;3.67;;;;;;;25.81;59.13;99388.03;5112892;28;20206;-70
2022/07/30 00:20:39;;;;;;;3.77;3.57;;;;;;;25.73;59.76;99387.91;5112565;28;20579;-70
2022/07/30 00:23:06;;;;;;;4.53;4.13;;;;;;;25.66;59.83;99379.75;5112508;28;20247;-70
2022/07/30 00:25:34;;;;;;;4.20;3.90;;;;;;;25.53;60.31;99382.69;5112941;28;20191;-70
2022/07/30 00:28:01;;;;;;;3.77;3.50;;;;;;;25.38;60.46;99364.88;5129124;27;20201;-70
2022/07/30 00:30:27;;;;;;;3.93;3.63;;;;;;;25.48;60.30;99378.81;5133006;27;20201;-70
2022/07/30 00:32:54;;;;;;;4.40;4.10;;;;;;;25.45;60.18;99386.97;5132791;27;20215;-70
2022/07/30 00:35:21;;;;;;;4.27;3.80;;;;;;;25.40;60.36;99370.81;5131937;27;20209;-71
2022/07/30 00:37:49;;;;;;;4.10;3.77;;;;;;;25.35;60.75;99378.28;5118062;27;20227;-70
2022/07/30 00:40:16;;;;;;;3.60;3.40;;;;;;;25.32;60.18;99368.91;5117600;27;20662;-70
2022/07/30 00:42:46;;;;;;;3.60;3.40;;;;;;;25.30;60.81;99370.00;5125435;27;20190;-69
2022/07/30 00:45:14;;;;;;;4.07;3.67;;;;;;;25.22;60.69;99369.88;5132589;27;20205;-70
2022/07/30 00:47:41;;;;;;;4.93;4.20;;;;;;;25.14;60.80;99364.50;5113204;27;20639;-70
2022/07/30 00:50:10;;;;;;;4.17;3.97;;;;;;;25.05;61.08;99360.91;5112016;28;20206;-70
2022/07/30 00:52:38;;;;;;;4.87;4.67;;;;;;;24.96;61.17;99357.31;5112136;28;20233;-70
2022/07/30 00:55:08;;;;;;;4.17;3.90;;;;;;;24.95;62.01;99363.53;5117939;27;20222;-70
2022/07/30 00:57:35;;;;;;;4.70;4.33;;;;;;;24.95;61.74;99360.91;5132379;27;20209;-70
2022/07/30 01:00:02;;;;;;;4.10;3.90;;;;;;;24.91;62.14;99351.63;5111850;28;20206;-69
2022/07/30 01:02:28;;;;;;;4.33;4.13;;;;;;;24.88;62.65;99349.28;5111842;28;20195;-70
2022/07/30 01:04:55;;;;;;;4.27;4.03;;;;;;;24.89;63.04;99353.59;5111740;28;20578;-69
2022/07/30 01:07:22;;;;;;;4.10;3.90;;;;;;;24.85;62.89;99339.09;5111698;28;20199;-70
2022/07/30 01:09:49;;;;;;;4.50;4.20;;;;;;;24.84;63.11;99345.31;5112035;28;20703;-70
2022/07/30 01:12:20;;;;;;;4.00;3.80;;;;;;;24.89;62.98;99361.44;5111453;28;20217;-70
2022/07/30 01:14:48;;;;;;;3.97;3.77;;;;;;;24.88;62.72;99359.78;5111538;28;20198;-70
2022/07/30 01:17:15;;;;;;;3.87;3.70;;;;;;;24.85;62.22;99365.31;5111526;28;20198;-70
2022/07/30 01:19:51;;;;;;;5.27;3.90;;;;;;;24.81;62.37;99358.66;5111436;28;20197;-70
2022/07/30 01:22:28;;;;;;;3.90;3.63;;;;;;;24.79;62.77;99365.81;5111815;28;20202;-70
2022/07/30 01:25:01;;;;;;;4.47;4.27;;;;;;;24.72;62.82;99364.72;5111563;28;20735;-70
2022/07/30 01:27:33;;;;;;;4.10;3.90;;;;;;;24.54;63.00;99340.13;5111604;28;20191;-70
2022/07/30 01:30:04;;;;;;;4.63;4.43;;;;;;;24.63;63.04;99352.41;5111502;27;20218;-70
2022/07/30 01:32:34;;;;;;;5.07;4.77;;;;;;;24.52;63.16;99352.56;5111629;27;20243;-70
2022/07/30 01:35:02;;;;;;;4.57;4.37;;;;;;;24.46;63.11;99353.06;5130210;27;20198;-70
2022/07/30 01:37:30;;;;;;;4.70;4.30;;;;;;;24.40;64.04;99348.38;5122135;27;20194;-69
2022/07/30 01:39:58;;;;;;;5.20;4.80;;;;;;;24.36;64.63;99349.63;5114739;27;20198;-70
2022/07/30 01:42:28;;;;;;;5.43;4.30;;;;;;;24.30;64.89;99350.13;5111134;28;20198;-70
2022/07/30 01:44:58;;;;;;;4.33;4.13;;;;;;;24.26;65.03;99351.41;5111245;28;20579;-69
2022/07/30 01:47:27;;;;;;;4.87;4.60;;;;;;;24.24;65.47;99353.31;5111581;28;20259;-69
2022/07/30 01:49:54;;;;;;;4.20;4.00;;;;;;;24.22;65.22;99345.59;5111123;28;20234;-69
2022/07/30 01:52:23;;;;;;;4.37;4.07;;;;;;;24.23;65.16;99341.19;5111068;28;20218;-69
2022/07/30 01:54:52;;;;;;;4.10;3.90;;;;;;;24.22;65.39;99345.59;5112523;28;20198;-70
2022/07/30 01:57:20;;;;;;;4.83;4.60;;;;;;;24.22;65.45;99345.59;5115329;28;20224;-70
2022/07/30 01:59:52;;;;;;;4.70;4.50;;;;;;;24.20;66.06;99344.88;5115429;28;20201;-69
2022/07/30 02:02:20;;;;;;;4.47;4.27;;;;;;;24.21;66.03;99349.16;5115512;28;20191;-69
2022/07/30 02:04:47;;;;;;;5.10;4.60;;;;;;;24.19;65.31;99351.09;5115344;28;20194;-70
2022/07/30 02:07:19;;;;;;;4.70;4.43;;;;;;;24.08;65.91;99350.31;5115211;28;20226;-69
2022/07/30 02:09:53;;;;;;;4.80;4.60;;;;;;;24.00;66.75;99354.47;5115570;27;20570;-69
2022/07/30 02:12:28;;;;;;;5.23;4.97;;;;;;;23.91;66.42;99357.84;5115318;28;20202;-69
2022/07/30 02:15:05;;;;;;;6.50;4.17;;;;;;;23.86;66.73;99354.78;5115373;28;20662;-70
2022/07/30 02:17:41;;;;;;;4.90;4.60;;;;;;;23.81;67.00;99337.84;5114993;28;20194;-69
2022/07/30 02:20:10;;;;;;;4.37;4.17;;;;;;;23.87;66.51;99351.22;5115223;28;20270;-69
2022/07/30 02:22:39;;;;;;;5.07;4.87;;;;;;;23.82;66.06;99348.16;5114878;28;20282;-69
2022/07/30 02:25:09;;;;;;;5.27;4.77;;;;;;;23.81;67.01;99345.69;5115037;28;20191;-70
2022/07/30 02:27:40;;;;;;;5.10;4.90;;;;;;;23.80;66.75;99339.63;5114585;28;20200;-69
2022/07/30 02:30:09;;;;;;;5.13;4.70;;;;;;;23.65;67.39;99325.19;5114732;28;20707;-69
2022/07/30 02:32:40;;;;;;;4.90;4.60;;;;;;;23.66;67.20;99345.19;5123310;27;20214;-69
2022/07/30 02:35:12;;;;;;;4.43;4.23;;;;;;;23.47;67.64;99332.84;5118422;27;20198;-69
2022/07/30 02:37:41;;;;;;;4.67;4.47;;;;;;;23.53;67.90;99342.78;5119654;27;20199;-69
2022/07/30 02:40:10;;;;;;;4.93;4.63;;;;;;;23.56;67.83;99341.69;5114603;28;20199;-69
2022/07/30 02:42:38;;;;;;;5.47;5.03;;;;;;;23.58;67.87;99345.03;5114422;28;20201;-69
2022/07/30 02:45:07;;;;;;;4.90;4.70;;;;;;;23.58;67.95;99334.56;5114596;27;20289;-69
2022/07/30 02:47:35;;;;;;;4.83;4.63;;;;;;;23.53;67.88;99326.25;5118008;27;20197;-68
2022/07/30 02:50:06;;;;;;;8.90;5.77;;;;;;;23.62;67.62;99328.06;5131847;27;20570;-69
2022/07/30 02:52:34;;;;;;;5.60;5.20;;;;;;;23.62;67.93;99330.69;5134770;27;20692;-68
2022/07/30 02:55:03;;;;;;;5.27;4.97;;;;;;;23.56;68.76;99336.44;5134770;27;20218;-69
2022/07/30 02:57:33;;;;;;;5.40;4.90;;;;;;;23.49;68.79;99335.31;5114041;28;20574;-69
2022/07/30 03:00:01;;;;;;;5.87;5.23;;;;;;;23.47;69.03;99332.00;5114268;28;20248;-69
2022/07/30 03:02:28;;;;;;;5.10;4.70;;;;;;;23.49;69.22;99327.47;5114310;28;20210;-69
2022/07/30 03:04:57;;;;;;;4.80;4.60;;;;;;;23.46;69.71;99322.47;5114282;28;20198;-69
2022/07/30 03:07:27;;;;;;;5.17;4.97;;;;;;;23.41;69.61;99322.88;5112914;28;20206;-69
2022/07/30 03:09:56;;;;;;;5.27;4.90;;;;;;;23.25;69.97;99312.03;5113973;28;20205;-69
2022/07/30 03:12:25;;;;;;;4.83;4.53;;;;;;;23.34;69.96;99318.25;5113744;28;20202;-69
2022/07/30 03:14:52;;;;;;;5.07;4.77;;;;;;;23.36;69.23;99316.38;5113869;28;20202;-69
2022/07/30 03:17:22;;;;;;;7.53;5.00;;;;;;;23.36;70.02;99324.22;5114132;28;20289;-69
2022/07/30 03:19:50;;;;;;;5.20;4.90;;;;;;;23.34;69.88;99313.03;5113788;28;20207;-68
2022/07/30 03:22:19;;;;;;;5.20;4.93;;;;;;;23.32;69.57;99314.94;5113670;28;20202;-69
2022/07/30 03:24:49;;;;;;;6.37;5.23;;;;;;;23.38;70.00;99327.50;5113601;28;20210;-68
2022/07/30 03:27:17;;;;;;;5.23;4.87;;;;;;;23.30;71.01;99329.94;5113813;28;20199;-69
2022/07/30 03:29:44;;;;;;;5.93;5.63;;;;;;;23.29;71.46;99338.75;5113724;28;20198;-69
2022/07/30 03:32:12;;;;;;;5.93;5.43;;;;;;;23.29;71.63;99338.75;5118532;27;20199;-69
2022/07/30 03:34:39;;;;;;;5.20;4.80;;;;;;;23.30;71.89;99335.16;5116558;27;20235;-69
2022/07/30 03:37:06;;;;;;;5.67;5.37;;;;;;;23.32;71.44;99333.25;5113458;28;20191;-69
2022/07/30 03:39:36;;;;;;;5.97;5.57;;;;;;;23.33;71.05;99335.72;5113738;27;20662;-69
2022/07/30 03:42:06;;;;;;;15.30;6.03;;;;;;;23.27;71.55;99330.19;5113576;27;20547;-69
2022/07/30 03:44:33;;;;;;;6.00;5.30;;;;;;;23.36;70.87;99334.66;5113557;28;20271;-69
2022/07/30 03:47:02;;;;;;;6.73;5.40;;;;;;;23.41;70.99;99341.19;5113145;28;20662;-69
2022/07/30 03:49:29;;;;;;;6.27;5.67;;;;;;;23.45;70.31;99344.41;5113534;27;20198;-69
2022/07/30 03:51:56;;;;;;;5.30;5.00;;;;;;;23.52;70.39;99340.31;5113344;28;20671;-68
2022/07/30 03:54:23;;;;;;;6.30;5.80;;;;;;;23.58;69.80;99333.72;5113390;28;20567;-69
2022/07/30 03:56:50;;;;;;;8.10;5.80;;;;;;;23.66;69.92;99342.56;5112990;28;20222;-69
2022/07/30 03:59:19;;;;;;;6.17;5.87;;;;;;;23.69;69.72;99342.31;5113100;28;20203;-69
2022/07/30 04:01:46;;;;;;;5.90;5.60;;;;;;;23.65;69.72;99346.13;5113028;28;20195;-69
2022/07/30 04:04:12;;;;;;;6.13;5.80;;;;;;;23.43;70.72;99341.06;5112926;28;20202;-69
2022/07/30 04:06:41;;;;;;;6.30;5.90;;;;;;;23.48;71.09;99344.13;5113056;28;20198;-69
2022/07/30 04:09:09;;;;;;;6.27;5.97;;;;;;;23.53;71.46;99352.41;5130896;27;20194;-69
2022/07/30 04:11:36;;;;;;;6.30;5.97;;;;;;;23.53;71.26;99347.19;5133565;27;20689;-69
2022/07/30 04:14:03;;;;;;;6.63;6.07;;;;;;;23.63;71.39;99347.22;5133413;27;20217;-69
2022/07/30 04:16:43;;;;;;;6.43;6.03;;;;;;;23.67;71.43;99349.47;5112758;28;20199;-69
2022/07/30 04:19:15;;;;;;;7.43;5.77;;;;;;;23.70;71.12;99346.59;5112479;28;20256;-69
2022/07/30 04:21:44;;;;;;;6.17;5.60;;;;;;;23.76;71.36;99348.69;5112762;28;20248;-69
2022/07/30 04:24:12;;;;;;;6.50;6.00;;;;;;;23.87;71.06;99359.09;5130028;27;20669;-69
2022/07/30 04:26:39;;;;;;;13.60;6.03;;;;;;;23.98;70.87;99356.34;5133344;27;20197;-69
2022/07/30 04:29:10;;;;;;;5.73;5.43;;;;;;;24.19;71.02;99350.25;5119687;27;20202;-70
2022/07/30 04:31:38;;;;;;;6.30;5.87;;;;;;;24.37;70.72;99353.88;5120434;27;20663;-70
2022/07/30 04:34:05;;;;;;;9.17;5.60;;;;;;;24.63;70.50;99360.28;5113464;27;20214;-70
2022/07/30 04:36:39;;;;;;;5.83;5.43;;;;;;;24.86;69.55;99356.47;5112553;28;20194;-70
2022/07/30 04:39:05;;;;;;;5.33;5.10;;;;;;;25.13;68.64;99362.84;5112341;28;20195;-70
2022/07/30 04:41:32;;;;;;;5.63;5.17;;;;;;;25.36;67.47;99358.94;5112291;28;20206;-69
2022/07/30 04:43:59;;;;;;;5.50;5.20;;;;;;;25.52;66.12;99344.31;5116004;27;20202;-70
2022/07/30 04:46:26;;;;;;;6.20;4.97;;;;;;;25.87;64.42;99356.78;5112309;28;20206;-70
2022/07/30 04:48:54;;;;;;;5.43;5.03;;;;;;;25.95;63.85;99358.66;5112080;28;20195;-70
2022/07/30 04:51:25;;;;;;;5.70;5.23;;;;;;;26.23;63.52;99354.28;5112057;28;20202;-70
2022/07/30 04:53:54;;;;;;;5.30;4.93;;;;;;;26.52;64.43;99355.78;5111823;28;20217;-70
2022/07/30 04:56:22;;;;;;;5.43;4.93;;;;;;;26.81;63.16;99352.13;5111701;28;20226;-70
2022/07/30 04:58:51;;;;;;;5.20;4.80;;;;;;;26.97;60.78;99358.38;5132551;27;20201;-70
2022/07/30 05:01:36;;;;;;;5.33;5.10;;;;;;;27.23;61.82;99360.22;5131452;27;20250;-70
2022/07/30 05:04:06;;;;;;;4.43;4.17;;;;;;;27.44;58.52;99364.19;5111999;28;20190;-71
2022/07/30 05:06:34;;;;;;;5.23;4.83;;;;;;;27.64;58.83;99355.13;5111645;28;20198;-70
2022/07/30 05:09:01;;;;;;;5.33;5.00;;;;;;;27.87;58.32;99360.69;5111712;28;20213;-71
2022/07/30 05:11:28;;;;;;;5.30;4.80;;;;;;;28.09;57.51;99360.16;5111730;28;20207;-70
2022/07/30 05:13:55;;;;;;;5.37;4.97;;;;;;;28.31;57.62;99360.56;5111927;28;20284;-71
2022/07/30 05:16:21;;;;;;;4.83;4.43;;;;;;;28.55;56.35;99360.63;5118943;27;20189;-71
2022/07/30 05:18:48;;;;;;;4.77;4.57;;;;;;;28.78;56.00;99364.34;5132208;27;20194;-71
2022/07/30 05:21:17;;;;;;;4.57;4.37;;;;;;;28.94;54.72;99356.44;5132066;27;20293;-71
2022/07/30 05:23:43;;;;;;;4.33;4.03;;;;;;;29.16;53.70;99365.53;5129888;27;20255;-71
2022/07/30 05:26:10;;;;;;;4.18;3.97;;;;;;;29.40;53.50;99378.75;5116524;27;20210;-71
2022/07/30 05:28:37;;;;;;;4.72;4.43;;;;;;;29.56;52.35;99372.63;5119091;27;20205;-71
2022/07/30 05:31:04;;;;;;;4.82;4.53;;;;;;;29.71;52.53;99370.94;5112223;28;20199;-71
2022/07/30 05:33:31;;;;;;;4.82;4.63;;;;;;;29.89;52.22;99363.66;5115108;28;20724;-71
2022/07/30 05:35:59;;;;;;;7.47;5.63;;;;;;;30.01;51.61;99362.31;5132101;27;20205;-71
2022/07/30 05:38:27;;;;;;;5.03;4.20;;;;;;;30.27;52.76;99366.50;5131658;27;20213;-72
2022/07/30 05:40:54;;;;;;;4.18;3.97;;;;;;;30.48;51.93;99358.78;5131892;27;20194;-71
2022/07/30 05:43:21;;;;;;;4.85;4.40;;;;;;;30.65;51.04;99368.28;5131790;27;20194;-71
2022/07/30 05:45:47;;;;;;;4.10;3.85;;;;;;;30.84;50.29;99359.88;5131637;27;20194;-71
2022/07/30 05:48:14;;;;;;;3.95;3.75;;;;;;;31.01;49.55;99358.81;5131870;27;20609;-72
2022/07/30 05:50:41;;;;;;;4.93;4.40;;;;;;;31.15;49.64;99359.81;5131657;27;20198;-72
2022/07/30 05:53:08;;;;;;;3.90;3.70;;;;;;;31.21;48.99;99359.94;5127910;28;20197;-72
2022/07/30 05:55:36;;;;;;;4.38;4.18;;;;;;;31.36;46.37;99365.28;5130138;28;20233;-72
2022/07/30 05:58:03;;;;;;;4.28;3.97;;;;;;;31.49;46.92;99364.66;5131481;28;20684;-71
2022/07/30 06:00:30;;;;;;;4.60;4.38;;;;;;;31.65;47.89;99360.06;5131539;28;20693;-72
2022/07/30 06:02:57;;;;;;;6.65;4.13;;;;;;;31.75;46.80;99367.75;5131410;27;20194;-72
2022/07/30 06:05:24;;;;;;;4.60;4.10;;;;;;;31.98;47.48;99363.19;5131967;28;20653;-72
2022/07/30 06:07:50;;;;;;;5.22;4.90;;;;;;;32.07;44.26;99364.75;5131455;27;20197;-71
2022/07/30 06:10:17;;;;;;;4.32;4.10;;;;;;;31.96;43.77;99362.53;5131636;28;20221;-72
2022/07/30 06:12:45;;;;;;;5.28;4.40;;;;;;;32.13;44.58;99360.53;5131320;28;20202;-73
2022/07/30 06:15:12;;;;;;;5.05;4.75;;;;;;;32.24;44.54;99358.25;5131197;28;20233;-72
2022/07/30 06:17:43;;;;;;;4.22;3.83;;;;;;;32.40;44.27;99353.72;5131507;28;20198;-72
2022/07/30 06:20:12;;;;;;;4.40;4.20;;;;;;;32.59;44.08;99353.16;5130672;27;20250;-72
2022/07/30 06:22:39;;;;;;;4.22;4.03;;;;;;;32.72;43.34;99362.09;5117974;28;20194;-73
2022/07/30 06:25:06;;;;;;;5.85;4.35;;;;;;;32.64;40.95;99345.44;5111552;27;20194;-72
2022/07/30 06:27:35;;;;;;;4.40;4.18;;;;;;;32.76;43.42;99349.25;5120153;28;20198;-73
2022/07/30 06:30:05;;;;;;;6.18;3.70;;;;;;;33.10;43.36;99369.81;5110622;28;20198;-72
2022/07/30 06:32:32;;;;;;;4.20;4.00;;;;;;;33.22;42.13;99377.06;5110782;28;20199;-73
2022/07/30 06:35:00;;;;;;;4.25;3.95;;;;;;;33.23;41.04;99383.22;5110893;28;20217;-73
2022/07/30 06:37:26;;;;;;;4.57;4.38;;;;;;;33.24;41.84;99375.06;5110807;28;20199;-73
2022/07/30 06:39:53;;;;;;;4.65;4.35;;;;;;;33.35;41.42;99386.16;5110867;28;20693;-73
2022/07/30 06:42:20;;;;;;;6.18;4.82;;;;;;;33.62;41.59;99385.38;5128265;27;20666;-73
2022/07/30 06:44:47;;;;;;;4.47;4.28;;;;;;;33.74;40.91;99382.00;5135027;27;20250;-73
2022/07/30 06:47:20;;;;;;;4.20;4.00;;;;;;;33.88;40.85;99385.56;5134988;27;20213;-72
2022/07/30 06:49:46;;;;;;;13.32;5.13;;;;;;;33.89;39.92;99383.72;5134907;27;20198;-73
2022/07/30 06:52:13;;;;;;;4.93;4.28;;;;;;;34.04;41.88;99377.25;5135054;27;20190;-73
2022/07/30 06:54:40;;;;;;;5.72;3.65;;;;;;;34.02;38.75;99368.66;5134665;27;20214;-72
2022/07/30 06:57:07;;;;;;;4.28;4.07;;;;;;;33.98;38.81;99364.75;5134819;27;20685;-74
2022/07/30 06:59:36;;;;;;;3.90;3.67;;;;;;;33.53;38.33;99360.75;5114345;28;20205;-72
2022/07/30 07:02:03;;;;;;;3.80;3.60;;;;;;;33.32;39.16;99358.13;5114408;28;20210;-74
2022/07/30 07:04:31;;;;;;;3.63;3.50;;;;;;;33.13;39.48;99351.66;5114184;28;20214;-73
2022/07/30 07:06:58;;;;;;;4.60;4.20;;;;;;;33.07;39.75;99357.72;5117100;27;20666;-73
2022/07/30 07:09:25;;;;;;;5.75;5.22;;;;;;;33.24;40.41;99353.81;5134413;27;20209;-72
2022/07/30 07:11:52;;;;;;;4.15;3.95;;;;;;;33.45;40.26;99344.13;5134502;27;20194;-73
2022/07/30 07:14:19;;;;;;;3.92;3.72;;;;;;;33.65;39.38;99351.25;5134375;27;20210;-73
2022/07/30 07:16:47;;;;;;;4.53;4.32;;;;;;;33.88;39.01;99342.16;5134742;27;20661;-72
2022/07/30 07:19:15;;;;;;;4.00;3.80;;;;;;;33.87;39.53;99349.31;5113990;28;20203;-73
2022/07/30 07:21:43;;;;;;;4.05;3.85;;;;;;;34.08;39.83;99340.44;5117777;27;20224;-73
2022/07/30 07:24:10;;;;;;;4.15;3.95;;;;;;;34.33;37.85;99348.75;5127176;27;20202;-73
2022/07/30 07:26:36;;;;;;;3.88;3.58;;;;;;;34.33;39.39;99338.09;5118095;27;20693;-72
2022/07/30 07:29:03;;;;;;;4.05;3.85;;;;;;;34.51;38.18;99341.03;5119764;27;20194;-72
2022/07/30 07:31:30;;;;;;;4.43;3.92;;;;;;;34.58;37.09;99336.50;5133696;27;20201;-72
2022/07/30 07:33:57;;;;;;;3.97;3.67;;;;;;;34.78;37.93;99337.41;5133798;27;20206;-72
2022/07/30 07:36:24;;;;;;;4.05;3.78;;;;;;;34.94;36.72;99331.69;5134304;27;20577;-72
2022/07/30 07:38:52;;;;;;;4.25;3.95;;;;;;;34.74;36.16;99339.66;5113515;28;20259;-72
2022/07/30 07:41:19;;;;;;;4.07;3.85;;;;;;;34.56;36.88;99335.91;5125318;27;20201;-72
2022/07/30 07:43:45;;;;;;;4.50;4.30;;;;;;;34.63;38.78;99326.13;5133960;27;20209;-72
2022/07/30 07:46:15;;;;;;;4.03;3.83;;;;;;;35.06;37.83;99335.38;5133966;27;20573;-72
2022/07/30 07:48:42;;;;;;;4.25;3.97;;;;;;;35.22;37.31;99326.19;5133798;27;20221;-72
2022/07/30 07:51:09;;;;;;;4.50;4.20;;;;;;;35.07;37.75;99326.34;5133823;27;20197;-73
2022/07/30 07:53:35;;;;;;;4.60;4.28;;;;;;;34.84;37.17;99331.25;5125274;27;20202;-73
2022/07/30 07:56:07;;;;;;;4.05;3.72;;;;;;;35.17;38.29;99337.47;5133587;27;20229;-72
2022/07/30 07:58:34;;;;;;;3.50;3.20;;;;;;;35.30;36.27;99337.47;5133661;27;20194;-72
2022/07/30 08:01:00;;;;;;;4.90;4.00;;;;;;;34.78;35.73;99332.09;5133714;27;20190;-73
2022/07/30 08:03:27;;;;;;;4.07;3.88;;;;;;;34.88;37.26;99331.69;5133540;27;20574;-73
2022/07/30 08:05:54;;;;;;;3.75;3.53;;;;;;;34.65;36.15;99324.06;5133465;27;20669;-74
2022/07/30 08:08:21;;;;;;;3.72;3.58;;;;;;;34.56;36.71;99319.94;5133652;27;20190;-73
2022/07/30 08:10:48;;;;;;;4.00;3.80;;;;;;;34.64;36.10;99314.44;5133643;27;20688;-73
2022/07/30 08:13:17;;;;;;;4.57;4.25;;;;;;;34.46;37.44;99316.84;5133522;27;20186;-74
2022/07/30 08:15:44;;;;;;;3.85;3.38;;;;;;;34.74;37.74;99320.19;5132086;27;20245;-72
2022/07/30 08:18:11;;;;;;;3.53;3.42;;;;;;;34.86;37.10;99318.56;5119239;27;20210;-73
2022/07/30 08:20:38;;;;;;;;;;;;;;;34.84;34.83;99320.59;5131003;27;20448;-75
2022/07/30 08:23:05;;;;;;;;;;;;;;;35.06;36.12;99319.38;5119078;27;19920;-72
2022/07/30 08:25:31;;;;;;;;;;;;;;;35.44;36.04;99308.13;5107924;28;20398;-73
2022/07/30 08:28:01;;;;;;;;;;;;;;;35.65;35.15;99318.53;5108519;27;20201;-69
2022/07/30 08:30:29;;;;;;;;;;;;;;;35.32;35.35;99312.44;5111368;28;20246;-68
2022/07/30 08:32:55;;;;;;;;;;;;;;;35.09;35.92;99304.84;5128948;27;20678;-73
2022/07/30 08:35:22;;;;;;;;;;;;;;;35.27;35.63;99307.72;5121040;27;20228;-68
2022/07/30 08:37:48;;;;;;;;;;;;;;;35.45;35.36;99301.72;5123466;27;20191;-68
2022/07/30 08:40:17;;;;;;;;;;;;;;;35.52;34.93;99302.53;5129817;27;20207;-69
2022/07/30 08:42:44;;;;;;;;;;;;;;;35.29;35.00;99301.16;5114155;27;20218;-68
2022/07/30 08:45:12;;;;;;;;;;;;;;;35.07;36.23;99305.03;5116442;27;20293;-68
2022/07/30 08:47:41;;;;;;;;;;;;;;;35.40;36.40;99304.22;5116574;27;20627;-68
2022/07/30 08:50:08;;;;;;;;;;;;;;;35.69;35.93;99304.59;5111353;27;20234;-68
2022/07/30 08:52:36;;;;;;;;;;;;;;;35.64;34.24;99304.38;5117213;27;20218;-69
2022/07/30 08:55:04;;;;;;;;;;;;;;;35.44;34.80;99300.13;5122361;27;20232;-69
2022/07/30 08:57:30;;;;;;;;;;;;;;;35.36;33.90;99300.31;5118490;27;20185;-68
2022/07/30 08:59:57;;;;;;;;;;;;;;;35.01;33.74;99289.88;5123107;27;20286;-68
2022/07/30 09:02:24;;;;;;;;;;;;;;;34.91;35.43;99283.31;5126981;27;20219;-68
2022/07/30 09:04:52;;;;;;;;;;;;;;;35.00;35.34;99277.56;5126426;27;20193;-68
2022/07/30 09:07:19;;;;;;;;;;;;;;;35.05;34.64;99280.47;5111675;27;20193;-68
2022/07/30 09:09:45;;;;;;;;;;;;;;;35.02;32.87;99272.06;5127946;27;20203;-69
2022/07/30 09:12:30;;;;;;;;;;;;;;;34.51;35.73;99271.81;5128869;27;25139;-67
2022/07/30 09:15:01;;;;;;;;;;;;;;;34.44;35.23;99270.97;5114604;27;21012;-68
2022/07/30 09:17:27;;;;;;;;;;;;;;;34.45;34.24;99260.09;5112856;27;20169;-69
2022/07/30 09:20:03;;;;;;;;;;;;;;;34.64;35.67;99255.84;5120998;27;20229;-68
2022/07/30 09:22:41;;;;;;;;;;;;;;;34.52;35.79;99258.28;5116169;27;20308;-68
2022/07/30 09:25:08;;;;;;;;;;;;;;;34.53;34.22;99248.44;5122725;27;20166;-68
2022/07/30 09:27:43;;;;;;;;;;;;;;;34.82;34.79;99247.25;5122924;27;20066;-68
2022/07/30 09:30:10;;;;;;;;;;;;;;;35.07;34.62;99243.75;5116667;27;20196;-68
2022/07/30 09:32:46;;;;;;;;;;;;;;;35.11;35.09;99242.34;5117312;27;20225;-68
2022/07/30 09:35:15;;;;;;;;;;;;;;;35.02;35.27;99248.06;5122832;27;20233;-69
2022/07/30 09:37:41;;;;;;;;;;;;;;;35.14;34.16;99239.28;5124786;27;20194;-68
2022/07/30 09:40:12;;;;;;;;;;;;;;;35.06;34.39;99239.44;5124768;27;20211;-68
2022/07/30 09:42:39;;;;;;;;;;;;;;;34.85;34.20;99230.88;5119213;27;20223;-68
2022/07/30 09:45:06;;;;;;;;;;;;;;;34.89;33.79;99227.59;5118544;27;20230;-68
2022/07/30 09:47:33;;;;;;;;;;;;;;;35.02;34.58;99232.09;5128037;27;20200;-69
2022/07/30 09:50:04;;;;;;;;;;;;;;;35.25;35.55;99227.94;5127416;27;20212;-69
2022/07/30 09:52:32;;;;;;;;;;;;;;;35.42;33.14;99227.50;5128380;27;20306;-68
2022/07/30 09:54:58;;;;;;;;;;;;;;;35.37;32.43;99230.00;5128181;28;20201;-68
2022/07/30 09:57:25;;;;;;;;;;;;;;;35.35;33.45;99226.72;5126494;28;20219;-70
2022/07/30 09:59:52;;;;;;;;;;;;;;;35.36;33.19;99223.00;5126058;28;20199;-69
2022/07/30 10:02:18;;;;;;;;;;;;;;;35.26;31.51;99213.59;5112837;28;20202;-67
2022/07/30 10:04:45;;;;;;;;;;;;;;;35.13;31.46;99213.63;5119491;28;20209;-68
2022/07/30 10:07:17;;;;;;;;;;;;;;;35.18;30.18;99211.19;5120440;28;20595;-68
2022/07/30 10:09:47;;;;;;;;;;;;;;;35.26;29.21;99208.28;5114553;28;20215;-68
2022/07/30 10:12:14;;;;;;;;;;;;;;;35.41;30.93;99212.56;5124762;28;20211;-69
2022/07/30 10:14:42;;;;;;;;;;;;;;;35.15;31.34;99211.59;5118881;27;20200;-67
2022/07/30 10:17:09;;;;;;;;;;;;;;;35.18;29.31;99200.53;5117338;27;20278;-66
2022/07/30 10:19:36;;;;;;;;;;;;;;;35.35;30.04;99205.41;5129281;27;20230;-66
2022/07/30 10:22:03;;;;;;;;;;;;;;;35.18;29.55;99195.19;5128554;27;20199;-66
2022/07/30 10:24:30;;;;;;;;;;;;;;;35.35;31.03;99200.06;5120932;27;20207;-65
2022/07/30 10:26:58;;;;;;;;;;;;;;;35.58;31.32;99187.03;5131677;27;20636;-67
2022/07/30 10:29:25;;;;;;;;;;;;;;;35.60;30.33;99182.34;5122136;27;20647;-68
2022/07/30 10:31:51;;;;;;;;;;;;;;;35.55;29.74;99182.13;5130020;27;20674;-68
2022/07/30 10:34:19;;;;;;;;;;;;;;;35.66;31.64;99184.16;5121889;27;20603;-66
2022/07/30 10:36:47;;;;;;;;;;;;;;;35.77;29.45;99184.31;5128213;27;20224;-65
2022/07/30 10:39:18;;;;;;;;;;;;;;;35.77;29.34;99178.97;5126077;27;20210;-65
2022/07/30 10:41:48;;;;;;;;;;;;;;;35.96;29.59;99177.25;5115595;27;20657;-65
2022/07/30 10:44:23;;;;;;;;;;;;;;;35.95;28.84;99170.25;5121127;27;20194;-65
2022/07/30 10:46:56;;;;;;;;;;;;;;;35.75;29.92;99173.03;5115538;27;20584;-65
2022/07/30 10:49:24;;;;;;;;;;;;;;;35.73;30.22;99159.09;5116168;27;20288;-65
2022/07/30 10:51:53;;;;;;;;;;;;;;;35.76;30.90;99156.00;5129821;27;20193;-65
2022/07/30 10:54:36;;;;;;;;;;;;;;;35.90;29.99;99151.38;5129826;27;20671;-65
2022/07/30 10:57:03;;;;;;;;;;;;;;;35.96;29.91;99145.22;5072765;28;20275;-65
2022/07/30 10:59:51;;;;;;;;;;;;;;;35.62;29.68;99141.09;5081948;28;20258;-65
2022/07/30 11:02:20;;;;;;;;;;;;;;;35.23;30.90;99134.06;5091388;28;20623;-65
2022/07/30 11:04:46;;;;;;;;;;;;;;;35.24;32.51;99135.72;5090963;28;20074;-65
2022/07/30 11:07:30;;;;;;;;;;;;;;;35.51;32.54;99127.59;5084245;28;20247;-65
2022/07/30 11:09:59;;;;;;;;;;;;;;;35.76;30.57;99139.19;5079236;28;20745;-64
2022/07/30 11:12:46;;;;;;;;;;;;;;;35.67;29.35;99124.47;5078376;28;20601;-65
2022/07/30 11:15:13;;;;;;;;;;;;;;;35.49;30.36;99126.97;5084709;28;20213;-65
2022/07/30 11:18:03;;;;;;;;;;;;;;;35.46;29.86;99120.22;5083086;28;20330;-64
2022/07/30 11:20:31;;;;;;;;;;;;;;;35.25;28.59;99116.00;5072792;28;20204;-65
2022/07/30 11:23:11;;;;;;;;;;;;;;;35.42;30.96;99111.00;5077676;28;21517;-65
2022/07/30 11:25:39;;;;;;;;;;;;;;;35.66;28.69;99114.81;5082806;28;20630;-65
2022/07/30 11:28:06;;;;;;;;;;;;;;;35.85;28.83;99116.53;5080768;28;20212;-64
2022/07/30 11:30:34;;;;;;;;;;;;;;;35.87;26.95;99114.47;5086651;28;20691;-64
2022/07/30 11:33:19;;;;;;;;;;;;;;;35.95;28.27;99106.22;5082350;28;20212;-65
2022/07/30 11:36:04;;;;;;;;;;;;;;;35.94;27.83;99101.91;5080334;28;20255;-64
2022/07/30 11:38:46;;;;;;;;;;;;;;;35.88;28.72;99097.44;5078518;28;20206;-65
2022/07/30 11:41:12;;;;;;;;;;;;;;;35.74;30.27;99087.88;5084058;28;20595;-65
2022/07/30 11:43:40;;;;;;;;;;;;;;;35.76;30.47;99081.31;5084688;28;20243;-64
2022/07/30 11:46:09;;;;;;;;;;;;;;;35.66;30.08;99082.81;5087411;28;20275;-64
2022/07/30 11:48:37;;;;;;;;;;;;;;;35.53;30.74;99080.19;5082244;28;20198;-65
2022/07/30 11:51:06;;;;;;;;;;;;;;;35.72;30.01;99080.09;5081310;28;20252;-65
2022/07/30 11:53:34;;;;;;;;;;;;;;;35.88;29.32;99077.94;5081312;28;20207;-65
2022/07/30 11:56:02;;;;;;;;;;;;;;;35.84;29.30;99072.22;5103376;27;20211;-65
2022/07/30 11:58:31;;;;;;;;;;;;;;;35.87;29.20;99071.78;5124065;27;20224;-64
2022/07/30 12:00:59;;;;;;;;;;;;;;;35.77;27.76;99074.09;5119383;27;20190;-65